createdAt,value
2019-04-21T00:00:11.641Z,52.30
2019-04-21T00:03:23.011Z,52.40
2019-04-21T00:06:41.111Z,52.40
2019-04-21T00:12:53.520Z,52.50
2019-04-21T00:15:48.962Z,52.50
2019-04-21T00:19:01.153Z,52.40
2019-04-21T00:22:11.701Z,52.40
2019-04-21T00:25:18.161Z,52.20
2019-04-21T00:28:36.276Z,52.10
2019-04-21T00:31:35.296Z,52.00
2019-04-21T00:34:27.995Z,52.00
2019-04-21T00:37:53.209Z,52.20
2019-04-21T00:41:01.628Z,52.40
2019-04-21T00:44:00.650Z,52.30
2019-04-21T00:47:17.643Z,51.90
2019-04-21T00:50:33.722Z,51.80
2019-04-21T00:53:46.811Z,51.90
2019-04-21T00:56:50.039Z,52.20
2019-04-21T00:59:52.559Z,52.40
2019-04-21T01:03:09.305Z,52.50
2019-04-21T01:06:16.433Z,52.30
2019-04-21T01:09:13.609Z,52.50
2019-04-21T01:12:25.468Z,52.60
2019-04-21T01:15:37.485Z,52.50
2019-04-21T01:18:36.880Z,52.60
2019-04-21T01:21:26.125Z,52.60
2019-04-21T01:24:36.154Z,52.50
2019-04-21T01:27:55.182Z,52.70
2019-04-21T01:31:05.663Z,52.90
2019-04-21T01:34:15.318Z,52.90
2019-04-21T01:37:15.948Z,53.20
2019-04-21T01:40:28.977Z,53.40
2019-04-21T01:43:27.791Z,53.50
2019-04-21T01:46:34.973Z,53.70
2019-04-21T01:49:37.768Z,53.90
2019-04-21T01:52:56.048Z,54.00
2019-04-21T01:56:19.662Z,54.00
2019-04-21T01:59:23.487Z,54.10
2019-04-21T02:02:41.531Z,54.20
2019-04-21T02:05:44.005Z,54.00
2019-04-21T02:08:49.365Z,54.20
2019-04-21T02:12:02.538Z,54.30
2019-04-21T02:15:07.717Z,54.40
2019-04-21T02:18:06.078Z,54.50
2019-04-21T02:21:04.124Z,54.30
2019-04-21T02:24:31.343Z,54.20
2019-04-21T02:27:29.585Z,54.30
2019-04-21T02:31:00.789Z,54.40
2019-04-21T02:40:21.943Z,55.00
2019-04-21T02:46:23.753Z,54.90
2019-04-21T02:49:37.731Z,55.00
2019-04-21T02:52:39.269Z,55.60
2019-04-21T02:55:38.729Z,55.90
2019-04-21T02:59:10.859Z,56.00
2019-04-21T03:02:25.725Z,55.80
2019-04-21T03:05:41.971Z,55.60
2019-04-21T03:08:44.307Z,56.20
2019-04-21T03:11:53.400Z,55.70
2019-04-21T03:18:26.597Z,55.50
2019-04-21T03:21:15.798Z,55.40
2019-04-21T03:24:18.153Z,55.50
2019-04-21T03:34:29.321Z,55.70
2019-04-21T03:40:07.493Z,55.50
2019-04-21T03:46:08.552Z,56.00
2019-04-21T03:49:20.895Z,56.10
2019-04-21T03:52:30.241Z,56.80
2019-04-21T03:58:52.606Z,56.00
2019-04-21T04:05:42.793Z,56.30
2019-04-21T04:11:53.136Z,56.70
2019-04-21T04:14:47.407Z,56.80
2019-04-21T04:17:49.903Z,56.90
2019-04-21T04:21:05.310Z,56.80
2019-04-21T04:24:04.362Z,56.90
2019-04-21T04:27:23.446Z,57.20
2019-04-21T04:30:21.779Z,56.60
2019-04-21T04:36:47.789Z,56.80
2019-04-21T04:40:10.926Z,56.80
2019-04-21T04:43:19.288Z,57.00
2019-04-21T04:46:26.735Z,58.10
2019-04-21T05:02:16.933Z,57.00
2019-04-21T05:05:13.612Z,57.00
2019-04-21T05:14:21.517Z,56.30
2019-04-21T05:17:49.212Z,55.80
2019-04-21T05:20:29.776Z,55.20
2019-04-21T05:23:44.149Z,54.10
2019-04-21T05:26:46.243Z,53.00
2019-04-21T05:29:58.588Z,52.50
2019-04-21T05:33:20.745Z,51.50
2019-04-21T05:36:33.999Z,50.30
2019-04-21T05:39:41.992Z,49.90
2019-04-21T05:42:51.052Z,49.80
2019-04-21T05:46:19.681Z,49.30
2019-04-21T05:49:09.349Z,48.00
2019-04-21T05:52:14.370Z,46.30
2019-04-21T05:55:34.220Z,44.50
2019-04-21T05:58:39.141Z,42.20
2019-04-21T06:02:07.186Z,41.20
2019-04-21T06:08:03.130Z,37.80
2019-04-21T06:11:07.546Z,36.60
2019-04-21T06:14:16.823Z,35.50
2019-04-21T06:17:23.640Z,34.30
2019-04-21T06:20:27.124Z,32.50
2019-04-21T06:23:35.987Z,31.60
2019-04-21T06:26:54.744Z,30.40
2019-04-21T06:29:49.242Z,29.30
2019-04-21T06:32:52.735Z,28.40
2019-04-21T06:39:55.416Z,27.10
2019-04-21T06:42:50.336Z,26.30
2019-04-21T06:45:54.330Z,25.60
2019-04-21T06:49:00.279Z,25.00
2019-04-21T06:52:07.626Z,24.50
2019-04-21T06:55:15.623Z,23.70
2019-04-21T06:58:18.076Z,23.00
2019-04-21T07:01:24.094Z,22.10
2019-04-21T07:04:31.235Z,21.20
2019-04-21T07:07:41.888Z,21.10
2019-04-21T07:10:43.504Z,21.00
2019-04-21T07:13:50.666Z,20.30
2019-04-21T07:16:59.602Z,19.60
2019-04-21T07:23:13.019Z,17.80
2019-04-21T07:26:10.486Z,17.10
2019-04-21T07:29:21.979Z,16.40
2019-04-21T07:32:26.794Z,15.90
2019-04-21T07:35:33.333Z,15.20
2019-04-21T07:38:41.095Z,14.70
2019-04-21T07:41:39.852Z,14.30
2019-04-21T07:44:46.031Z,13.80
2019-04-21T07:48:01.638Z,13.40
2019-04-21T07:51:33.964Z,13.20
2019-04-21T07:54:44.507Z,13.20
2019-04-21T07:57:39.363Z,12.90
2019-04-21T08:01:07.425Z,12.10
2019-04-21T08:04:03.713Z,12.70
2019-04-21T08:06:57.742Z,12.50
2019-04-21T08:10:03.216Z,12.00
2019-04-21T08:13:23.523Z,11.60
2019-04-21T08:16:24.140Z,11.20
2019-04-21T08:19:26.224Z,11.50
2019-04-21T08:22:34.927Z,10.80
2019-04-21T08:25:46.466Z,11.10
2019-04-21T08:28:47.524Z,10.70
2019-04-21T08:35:22.608Z,10.80
2019-04-21T08:38:08.751Z,11.30
2019-04-21T08:41:12.330Z,10.70
2019-04-21T08:44:20.528Z,10.60
2019-04-21T08:47:25.728Z,11.00
2019-04-21T08:50:34.251Z,11.30
2019-04-21T08:53:44.164Z,11.10
2019-04-21T08:57:06.004Z,10.70
2019-04-21T09:00:43.251Z,10.40
2019-04-21T09:10:09.400Z,10.60
2019-04-21T09:13:17.606Z,10.80
2019-04-21T09:16:21.984Z,10.70
2019-04-21T09:19:38.738Z,10.50
2019-04-21T09:22:35.800Z,11.50
2019-04-21T09:25:47.311Z,12.20
2019-04-21T09:28:39.427Z,13.50
2019-04-21T09:31:41.091Z,14.50
2019-04-21T09:34:45.505Z,15.00
2019-04-21T09:37:56.413Z,15.60
2019-04-21T09:40:56.494Z,16.60
2019-04-21T09:44:03.017Z,17.50
2019-04-21T09:47:09.205Z,18.40
2019-04-21T09:50:15.138Z,19.00
2019-04-21T09:53:26.872Z,19.90
2019-04-21T09:56:36.117Z,19.20
2019-04-21T09:59:38.266Z,19.90
2019-04-21T10:02:49.790Z,19.70
2019-04-21T10:05:47.491Z,19.30
2019-04-21T10:08:58.593Z,18.60
2019-04-21T10:12:00.760Z,18.70
2019-04-21T10:15:06.299Z,17.70
2019-04-21T10:18:17.265Z,18.40
2019-04-21T10:21:24.816Z,19.40
2019-04-21T10:24:30.571Z,20.40
2019-04-21T10:27:36.864Z,20.80
2019-04-21T10:30:42.589Z,21.10
2019-04-21T10:33:48.409Z,21.10
2019-04-21T10:36:53.199Z,21.30
2019-04-21T10:39:57.906Z,20.50
2019-04-21T10:43:03.791Z,20.40
2019-04-21T10:46:09.002Z,20.20
2019-04-21T10:49:14.796Z,19.30
2019-04-21T10:52:42.746Z,19.70
2019-04-21T10:56:01.478Z,20.60
2019-04-21T10:58:54.819Z,20.60
2019-04-21T11:02:03.324Z,20.70
2019-04-21T11:05:09.077Z,19.20
2019-04-21T11:08:22.709Z,18.70
2019-04-21T11:11:21.663Z,19.30
2019-04-21T11:14:27.192Z,20.00
2019-04-21T11:17:32.348Z,20.40
2019-04-21T11:20:37.294Z,20.70
2019-04-21T11:23:42.135Z,20.50
2019-04-21T11:26:47.732Z,20.70
2019-04-21T11:29:53.617Z,20.90
2019-04-21T11:32:59.309Z,20.60
2019-04-21T11:36:04.093Z,20.70
2019-04-21T11:39:42.237Z,20.80
2019-04-21T11:42:40.128Z,20.60
2019-04-21T11:45:46.245Z,20.60
2019-04-21T11:48:52.347Z,20.80
2019-04-21T11:51:58.624Z,21.20
2019-04-21T11:55:04.669Z,21.00
2019-04-21T11:58:09.926Z,20.80
2019-04-21T12:01:15.849Z,21.00
2019-04-21T12:04:21.299Z,20.70
2019-04-21T12:07:27.156Z,21.00
2019-04-21T12:10:33.139Z,21.20
2019-04-21T12:13:38.230Z,20.90
2019-04-21T12:16:43.289Z,20.90
2019-04-21T12:19:48.565Z,20.80
2019-04-21T12:22:53.418Z,20.70
2019-04-21T12:25:59.115Z,20.60
2019-04-21T12:29:04.190Z,20.70
2019-04-21T12:32:33.842Z,20.90
2019-04-21T12:35:39.742Z,21.10
2019-04-21T12:38:50.877Z,21.10
2019-04-21T12:41:50.869Z,20.90
2019-04-21T12:44:55.520Z,21.30
2019-04-21T12:48:00.209Z,21.60
2019-04-21T12:51:06.117Z,21.50
2019-04-21T12:54:11.960Z,21.30
2019-04-21T12:57:17.167Z,20.80
2019-04-21T13:00:22.815Z,20.80
2019-04-21T13:03:28.692Z,20.50
2019-04-21T13:06:34.958Z,20.60
2019-04-21T13:09:40.278Z,19.80
2019-04-21T13:12:45.898Z,20.30
2019-04-21T13:15:51.682Z,20.40
2019-04-21T13:18:57.598Z,20.70
2019-04-21T13:22:03.858Z,20.60
2019-04-21T13:25:09.741Z,20.20
2019-04-21T13:28:14.812Z,20.60
2019-04-21T13:31:20.255Z,20.80
2019-04-21T13:34:26.195Z,20.80
2019-04-21T13:37:31.160Z,21.30
2019-04-21T13:41:22.800Z,21.40
2019-04-21T13:44:17.721Z,21.80
2019-04-21T13:47:23.228Z,21.50
2019-04-21T13:50:29.014Z,21.80
2019-04-21T13:53:34.954Z,21.70
2019-04-21T13:56:40.614Z,21.40
2019-04-21T13:59:46.697Z,21.60
2019-04-21T14:02:52.530Z,21.30
2019-04-21T14:05:58.311Z,21.40
2019-04-21T14:09:03.333Z,21.90
2019-04-21T14:12:09.566Z,22.20
2019-04-21T14:15:15.563Z,21.80
2019-04-21T14:18:20.926Z,21.50
2019-04-21T14:21:26.988Z,22.00
2019-04-21T14:24:33.504Z,22.10
2019-04-21T14:27:38.633Z,22.10
2019-04-21T14:30:44.188Z,22.00
2019-04-21T14:33:50.040Z,22.20
2019-04-21T14:36:55.075Z,22.60
2019-04-21T14:40:06.872Z,22.90
2019-04-21T14:43:08.020Z,22.90
2019-04-21T14:46:19.332Z,23.10
2019-04-21T14:49:37.584Z,23.00
2019-04-21T14:52:44.187Z,23.10
2019-04-21T14:55:49.240Z,22.80
2019-04-21T14:58:57.111Z,22.70
2019-04-21T15:02:02.191Z,22.80
2019-04-21T15:05:09.329Z,22.80
2019-04-21T15:08:15.182Z,23.00
2019-04-21T15:11:20.118Z,22.60
2019-04-21T15:14:26.259Z,22.80
2019-04-21T15:17:31.657Z,22.90
2019-04-21T15:20:38.368Z,22.80
2019-04-21T15:23:44.686Z,22.80
2019-04-21T15:26:52.546Z,23.30
2019-04-21T15:29:56.661Z,22.80
2019-04-21T15:33:02.368Z,23.10
2019-04-21T15:36:08.961Z,23.10
2019-04-21T15:39:13.962Z,23.20
2019-04-21T15:42:18.705Z,22.80
2019-04-21T15:45:24.291Z,22.80
2019-04-21T15:48:29.232Z,22.70
2019-04-21T15:51:34.095Z,22.60
2019-04-21T15:54:38.900Z,22.80
2019-04-21T15:58:10.245Z,22.50
2019-04-21T16:01:32.936Z,22.70
2019-04-21T16:04:38.945Z,22.60
2019-04-21T16:07:46.077Z,22.60
2019-04-21T16:10:56.576Z,23.10
2019-04-21T16:13:57.742Z,23.30
2019-04-21T16:17:03.344Z,23.40
2019-04-21T16:20:10.050Z,23.60
2019-04-21T16:23:14.969Z,23.60
2019-04-21T16:26:20.333Z,23.40
2019-04-21T16:29:25.229Z,23.50
2019-04-21T16:32:30.232Z,23.50
2019-04-21T16:35:35.709Z,23.50
2019-04-21T16:38:41.775Z,23.90
2019-04-21T16:41:46.646Z,24.10
2019-04-21T16:44:52.656Z,24.30
2019-04-21T16:47:57.569Z,24.60
2019-04-21T16:51:03.681Z,24.40
2019-04-21T16:54:26.266Z,24.30
2019-04-21T16:57:41.883Z,24.60
2019-04-21T17:00:59.550Z,24.90
2019-04-21T17:03:58.255Z,24.90
2019-04-21T17:07:03.237Z,24.90
2019-04-21T17:10:08.638Z,25.10
2019-04-21T17:13:13.960Z,25.20
2019-04-21T17:16:44.762Z,25.50
2019-04-21T17:19:29.938Z,25.70
2019-04-21T17:22:33.632Z,25.80
2019-04-21T17:25:39.312Z,25.80
2019-04-21T17:28:45.016Z,25.90
2019-04-21T17:31:50.245Z,26.30
2019-04-21T17:34:56.231Z,26.50
2019-04-21T17:38:01.649Z,26.80
2019-04-21T17:41:19.314Z,27.10
2019-04-21T17:44:13.392Z,27.30
2019-04-21T17:47:28.921Z,27.60
2019-04-21T17:50:45.457Z,27.80
2019-04-21T17:54:03.015Z,28.20
2019-04-21T17:57:26.516Z,28.40
2019-04-21T18:00:57.465Z,28.70
2019-04-21T18:06:57.906Z,29.10
2019-04-21T18:10:07.302Z,29.50
2019-04-21T18:13:05.984Z,29.60
2019-04-21T18:16:18.059Z,29.80
2019-04-21T18:19:12.953Z,30.20
2019-04-21T18:22:43.104Z,30.80
2019-04-21T18:25:52.773Z,31.20
2019-04-21T18:28:53.458Z,31.30
2019-04-21T18:31:58.007Z,31.40
2019-04-21T18:35:29.241Z,31.50
2019-04-21T18:39:14.267Z,31.80
2019-04-21T18:42:37.192Z,32.10
2019-04-21T18:46:13.682Z,32.10
2019-04-21T18:49:09.115Z,32.40
2019-04-21T18:52:32.596Z,32.60
2019-04-21T18:55:36.160Z,32.90
2019-04-21T18:58:36.123Z,33.20
2019-04-21T19:01:51.426Z,33.50
2019-04-21T19:04:48.435Z,33.90
2019-04-21T19:08:08.939Z,34.50
2019-04-21T19:11:19.001Z,34.90
2019-04-21T19:20:44.378Z,35.50
2019-04-21T19:23:52.006Z,35.80
2019-04-21T19:33:10.203Z,36.80
2019-04-21T19:36:01.552Z,36.80
2019-04-21T19:39:16.129Z,36.90
2019-04-21T19:42:27.627Z,37.40
2019-04-21T19:45:39.683Z,37.60
2019-04-21T19:48:58.840Z,37.90
2019-04-21T19:51:46.243Z,38.20
2019-04-21T19:54:46.536Z,38.50
2019-04-21T19:57:49.788Z,38.90
2019-04-21T20:00:57.392Z,40.70
2019-04-21T20:04:02.853Z,39.80
2019-04-21T20:07:23.226Z,39.90
2019-04-21T20:10:32.815Z,40.10
2019-04-21T20:13:59.514Z,40.50
2019-04-21T20:16:46.892Z,40.40
2019-04-21T20:19:36.218Z,40.70
2019-04-21T20:22:44.104Z,40.90
2019-04-21T20:25:54.375Z,41.10
2019-04-21T20:29:03.304Z,41.40
2019-04-21T20:32:28.960Z,41.60
2019-04-21T20:35:34.644Z,42.00
2019-04-21T20:38:25.117Z,42.30
2019-04-21T20:41:37.972Z,42.40
2019-04-21T20:44:48.372Z,42.70
2019-04-21T20:47:42.372Z,42.70
2019-04-21T20:51:01.956Z,42.60
2019-04-21T20:54:02.959Z,43.10
2019-04-21T20:57:11.429Z,43.30
2019-04-21T21:00:18.729Z,43.70
2019-04-21T21:03:28.870Z,44.60
2019-04-21T21:06:32.631Z,44.30
2019-04-21T21:09:42.952Z,44.40
2019-04-21T21:12:56.278Z,44.50
2019-04-21T21:16:04.440Z,44.80
2019-04-21T21:19:10.540Z,45.00
2019-04-21T21:21:58.807Z,45.20
2019-04-21T21:25:21.344Z,45.50
2019-04-21T21:28:10.390Z,45.70
2019-04-21T21:31:30.668Z,46.00
2019-04-21T21:34:38.833Z,46.00
2019-04-21T21:37:42.152Z,46.10
2019-04-21T21:40:45.484Z,46.80
2019-04-21T21:43:39.164Z,45.90
2019-04-21T21:46:59.493Z,46.30
2019-04-21T21:50:01.148Z,46.50
2019-04-21T21:53:05.802Z,46.40
2019-04-21T21:56:04.652Z,46.50
2019-04-21T21:59:14.985Z,46.70
2019-04-21T22:02:26.474Z,47.30
2019-04-21T22:05:27.289Z,46.70
2019-04-21T22:08:30.559Z,46.70
2019-04-21T22:11:35.910Z,47.20
2019-04-21T22:14:45.444Z,47.60
2019-04-21T22:18:09.087Z,47.60
2019-04-21T22:21:09.376Z,47.70
2019-04-21T22:24:10.289Z,48.10
2019-04-21T22:27:09.291Z,49.10
2019-04-21T22:30:15.284Z,48.50
2019-04-21T22:33:23.270Z,49.10
2019-04-21T22:36:42.687Z,49.10
2019-04-21T22:39:49.653Z,49.30
2019-04-21T22:42:51.210Z,49.30
2019-04-21T22:45:49.405Z,49.20
2019-04-21T22:49:01.128Z,49.50
2019-04-21T22:52:10.370Z,49.40
2019-04-21T22:55:15.075Z,49.30
2019-04-21T22:58:22.998Z,49.70
2019-04-21T23:01:30.170Z,50.70
2019-04-21T23:04:35.858Z,50.30
2019-04-21T23:07:41.424Z,50.70
2019-04-21T23:10:51.311Z,50.70
2019-04-21T23:13:54.978Z,50.90
2019-04-21T23:17:14.828Z,50.90
2019-04-21T23:20:22.630Z,50.80
2019-04-21T23:23:28.417Z,51.10
2019-04-21T23:26:30.954Z,51.20
2019-04-21T23:29:48.321Z,51.40
2019-04-21T23:32:39.475Z,51.50
2019-04-21T23:35:41.682Z,51.40
2019-04-21T23:38:46.227Z,51.00
2019-04-21T23:41:52.880Z,51.10
2019-04-21T23:44:58.376Z,51.40
2019-04-21T23:48:18.556Z,51.60
2019-04-21T23:51:23.013Z,51.60
2019-04-21T23:54:17.402Z,51.60
2019-04-21T23:57:30.447Z,51.60
